sensor_id;sensor_type;location;lat;lon;timestamp;pressure;altitude;pressure_sealevel;temperature;humidity
77869;BME280;67231;59.144;37.934;2023-04-03T00:00:10;100216.13;;;1.83;82.10
77869;BME280;67231;59.144;37.934;2023-04-03T00:02:37;100207.41;;;1.82;82.08
77869;BME280;67231;59.144;37.934;2023-04-03T00:05:03;100213.59;;;1.81;82.05
77869;BME280;67231;59.144;37.934;2023-04-03T00:07:30;100211.91;;;1.80;82.35
77869;BME280;67231;59.144;37.934;2023-04-03T00:09:57;100205.94;;;1.78;82.37
77869;BME280;67231;59.144;37.934;2023-04-03T00:12:23;100212.91;;;1.78;81.65
77869;BME280;67231;59.144;37.934;2023-04-03T00:14:49;100213.00;;;1.76;82.16
77869;BME280;67231;59.144;37.934;2023-04-03T00:17:15;100211.34;;;1.75;82.12
77869;BME280;67231;59.144;37.934;2023-04-03T00:19:42;100210.56;;;1.73;82.41
77869;BME280;67231;59.144;37.934;2023-04-03T00:22:08;100205.53;;;1.70;82.30
77869;BME280;67231;59.144;37.934;2023-04-03T00:24:34;100205.41;;;1.72;82.78
77869;BME280;67231;59.144;37.934;2023-04-03T00:27:01;100206.19;;;1.74;82.11
77869;BME280;67231;59.144;37.934;2023-04-03T00:29:27;100204.41;;;1.74;82.05
77869;BME280;67231;59.144;37.934;2023-04-03T00:31:53;100200.97;;;1.74;81.99
77869;BME280;67231;59.144;37.934;2023-04-03T00:34:20;100205.34;;;1.73;82.05
77869;BME280;67231;59.144;37.934;2023-04-03T00:36:46;100210.56;;;1.73;82.08
77869;BME280;67231;59.144;37.934;2023-04-03T00:39:12;100206.28;;;1.72;81.94
77869;BME280;67231;59.144;37.934;2023-04-03T00:41:39;100204.41;;;1.74;82.35
77869;BME280;67231;59.144;37.934;2023-04-03T00:46:54;100195.81;;;1.72;82.45
77869;BME280;67231;59.144;37.934;2023-04-03T00:49:21;100206.28;;;1.72;82.12
77869;BME280;67231;59.144;37.934;2023-04-03T00:51:47;100211.53;;;1.72;82.41
77869;BME280;67231;59.144;37.934;2023-04-03T00:54:14;100210.66;;;1.72;82.09
77869;BME280;67231;59.144;37.934;2023-04-03T00:56:41;100225.34;;;1.74;82.12
77869;BME280;67231;59.144;37.934;2023-04-03T00:59:30;100215.72;;;1.75;82.42
77869;BME280;67231;59.144;37.934;2023-04-03T01:01:58;100214.69;;;1.77;82.31
77869;BME280;67231;59.144;37.934;2023-04-03T01:04:36;100211.16;;;1.78;82.57
77869;BME280;67231;59.144;37.934;2023-04-03T01:09:48;100210.13;;;1.81;82.29
77869;BME280;67231;59.144;37.934;2023-04-03T01:12:21;100204.97;;;1.79;82.59
77869;BME280;67231;59.144;37.934;2023-04-03T01:14:51;100214.69;;;1.77;82.31
77869;BME280;67231;59.144;37.934;2023-04-03T01:26:05;100220.75;;;1.78;82.24
77869;BME280;67231;59.144;37.934;2023-04-03T01:28:34;100218.16;;;1.78;82.12
77869;BME280;67231;59.144;37.934;2023-04-03T01:33:44;100227.50;;;1.82;82.60
77869;BME280;67231;59.144;37.934;2023-04-03T01:36:18;100230.88;;;1.84;82.56
77869;BME280;67231;59.144;37.934;2023-04-03T01:38:45;100240.50;;;1.84;82.30
77869;BME280;67231;59.144;37.934;2023-04-03T01:41:12;100232.75;;;1.82;82.23
77869;BME280;67231;59.144;37.934;2023-04-03T01:43:39;100230.13;;;1.82;81.97
77869;BME280;67231;59.144;37.934;2023-04-03T01:46:05;100230.97;;;1.82;82.60
77869;BME280;67231;59.144;37.934;2023-04-03T01:48:32;100243.94;;;1.84;82.55
77869;BME280;67231;59.144;37.934;2023-04-03T01:50:58;100238.44;;;1.89;82.32
77869;BME280;67231;59.144;37.934;2023-04-03T01:53:24;100234.03;;;1.89;82.33
77869;BME280;67231;59.144;37.934;2023-04-03T01:55:51;100236.66;;;1.89;82.41
77869;BME280;67231;59.144;37.934;2023-04-03T01:58:17;100242.75;;;1.90;82.51
77869;BME280;67231;59.144;37.934;2023-04-03T02:00:43;100243.84;;;1.86;82.64
77869;BME280;67231;59.144;37.934;2023-04-03T02:03:10;100242.16;;;1.85;82.34
77869;BME280;67231;59.144;37.934;2023-04-03T02:05:36;100238.72;;;1.84;82.21
77869;BME280;67231;59.144;37.934;2023-04-03T02:08:03;100250.13;;;1.83;82.67
77869;BME280;67231;59.144;37.934;2023-04-03T02:10:29;100245.72;;;1.84;82.65
77869;BME280;67231;59.144;37.934;2023-04-03T02:12:56;100246.47;;;1.86;82.13
77869;BME280;67231;59.144;37.934;2023-04-03T02:15:23;100250.78;;;1.87;82.14
77869;BME280;67231;59.144;37.934;2023-04-03T02:17:49;100245.56;;;1.87;82.51
77869;BME280;67231;59.144;37.934;2023-04-03T02:20:15;100247.22;;;1.88;82.72
77869;BME280;67231;59.144;37.934;2023-04-03T02:22:41;100252.38;;;1.89;82.51
77869;BME280;67231;59.144;37.934;2023-04-03T02:25:08;100246.28;;;1.89;82.61
77869;BME280;67231;59.144;37.934;2023-04-03T02:27:34;100260.97;;;1.91;82.60
77869;BME280;67231;59.144;37.934;2023-04-03T02:30:02;100252.28;;;1.91;82.72
77869;BME280;67231;59.144;37.934;2023-04-03T02:32:29;100249.66;;;1.91;82.73
77869;BME280;67231;59.144;37.934;2023-04-03T02:34:56;100243.59;;;1.90;82.45
77869;BME280;67231;59.144;37.934;2023-04-03T02:37:22;100256.59;;;1.92;82.86
77869;BME280;67231;59.144;37.934;2023-04-03T02:39:50;100260.03;;;1.92;82.34
77869;BME280;67231;59.144;37.934;2023-04-03T02:42:16;100261.63;;;1.95;82.64
77869;BME280;67231;59.144;37.934;2023-04-03T02:44:42;100260.03;;;1.92;82.81
77869;BME280;67231;59.144;37.934;2023-04-03T02:47:09;100257.31;;;1.94;82.89
77869;BME280;67231;59.144;37.934;2023-04-03T02:49:36;100269.50;;;1.95;82.89
77869;BME280;67231;59.144;37.934;2023-04-03T02:52:02;100263.34;;;1.96;82.28
77869;BME280;67231;59.144;37.934;2023-04-03T02:54:28;100265.84;;;1.97;82.56
77869;BME280;67231;59.144;37.934;2023-04-03T02:56:59;100262.38;;;1.97;82.76
77869;BME280;67231;59.144;37.934;2023-04-03T02:59:25;100268.56;;;1.96;82.37
77869;BME280;67231;59.144;37.934;2023-04-03T03:01:52;100276.41;;;1.96;82.06
77869;BME280;67231;59.144;37.934;2023-04-03T03:04:18;100273.03;;;1.94;82.66
77869;BME280;67231;59.144;37.934;2023-04-03T03:06:44;100276.41;;;1.96;82.63
77869;BME280;67231;59.144;37.934;2023-04-03T03:09:10;100276.41;;;1.96;82.50
77869;BME280;67231;59.144;37.934;2023-04-03T03:11:37;100280.78;;;1.95;82.51
77869;BME280;67231;59.144;37.934;2023-04-03T03:14:03;100283.41;;;1.95;82.59
77869;BME280;67231;59.144;37.934;2023-04-03T03:16:29;100279.78;;;1.98;82.36
77869;BME280;67231;59.144;37.934;2023-04-03T03:18:56;100295.47;;;1.98;82.18
77869;BME280;67231;59.144;37.934;2023-04-03T03:21:22;100292.03;;;1.97;82.42
77869;BME280;67231;59.144;37.934;2023-04-03T03:23:48;100287.63;;;1.98;82.27
77869;BME280;67231;59.144;37.934;2023-04-03T03:26:14;100297.16;;;1.99;82.17
77869;BME280;67231;59.144;37.934;2023-04-03T03:28:41;100299.66;;;2.00;82.43
77869;BME280;67231;59.144;37.934;2023-04-03T03:31:08;100302.19;;;2.02;82.54
77869;BME280;67231;59.144;37.934;2023-04-03T03:33:37;100300.53;;;2.01;82.53
77869;BME280;67231;59.144;37.934;2023-04-03T03:36:03;100305.59;;;2.04;82.14
77869;BME280;67231;59.144;37.934;2023-04-03T03:38:29;100300.34;;;2.04;82.07
77869;BME280;67231;59.144;37.934;2023-04-03T03:40:57;100302.13;;;2.04;82.74
77869;BME280;67231;59.144;37.934;2023-04-03T03:43:24;100308.38;;;2.01;82.23
77869;BME280;67231;59.144;37.934;2023-04-03T03:45:52;100303.91;;;2.03;82.43
77869;BME280;67231;59.144;37.934;2023-04-03T03:48:19;100309.03;;;2.05;82.37
77869;BME280;67231;59.144;37.934;2023-04-03T03:50:47;100309.13;;;2.03;82.43
77869;BME280;67231;59.144;37.934;2023-04-03T03:53:14;100308.28;;;2.03;82.19
77869;BME280;67231;59.144;37.934;2023-04-03T03:55:41;100306.50;;;2.03;82.38
77869;BME280;67231;59.144;37.934;2023-04-03T03:58:08;100313.53;;;2.03;82.05
77869;BME280;67231;59.144;37.934;2023-04-03T04:00:35;100314.38;;;2.03;82.27
77869;BME280;67231;59.144;37.934;2023-04-03T04:03:01;100308.38;;;2.01;82.31
77869;BME280;67231;59.144;37.934;2023-04-03T04:05:30;100308.47;;;1.99;82.16
77869;BME280;67231;59.144;37.934;2023-04-03T04:07:57;100308.38;;;2.01;82.51
77869;BME280;67231;59.144;37.934;2023-04-03T04:10:24;100309.13;;;2.03;82.65
77869;BME280;67231;59.144;37.934;2023-04-03T04:12:51;100303.72;;;2.06;82.47
77869;BME280;67231;59.144;37.934;2023-04-03T04:15:20;100309.50;;;2.11;82.40
77869;BME280;67231;59.144;37.934;2023-04-03T04:17:48;100315.31;;;2.16;82.27
77869;BME280;67231;59.144;37.934;2023-04-03T04:20:15;100313.28;;;2.22;82.11
77869;BME280;67231;59.144;37.934;2023-04-03T04:22:41;100311.31;;;2.25;82.00
77869;BME280;67231;59.144;37.934;2023-04-03T04:25:08;100318.13;;;2.28;82.38
77869;BME280;67231;59.144;37.934;2023-04-03T04:27:37;100319.66;;;2.32;82.06
77869;BME280;67231;59.144;37.934;2023-04-03T04:30:04;100316.66;;;2.38;81.98
77869;BME280;67231;59.144;37.934;2023-04-03T04:32:31;100314.88;;;2.39;82.00
77869;BME280;67231;59.144;37.934;2023-04-03T04:34:57;100313.09;;;2.39;82.13
77869;BME280;67231;59.144;37.934;2023-04-03T04:37:24;100334.81;;;2.41;81.98
77869;BME280;67231;59.144;37.934;2023-04-03T04:39:51;100328.81;;;2.39;82.31
77869;BME280;67231;59.144;37.934;2023-04-03T04:42:17;100332.56;;;2.35;82.32
77869;BME280;67231;59.144;37.934;2023-04-03T04:44:46;100324.63;;;2.36;81.80
77869;BME280;67231;59.144;37.934;2023-04-03T04:47:14;100324.34;;;2.41;81.86
77869;BME280;67231;59.144;37.934;2023-04-03T04:49:41;100325.81;;;2.45;81.93
77869;BME280;67231;59.144;37.934;2023-04-03T04:52:07;100329.00;;;2.50;81.92
77869;BME280;67231;59.144;37.934;2023-04-03T04:54:34;100332.22;;;2.55;82.22
77869;BME280;67231;59.144;37.934;2023-04-03T04:57:00;100337.44;;;2.55;81.67
77869;BME280;67231;59.144;37.934;2023-04-03T04:59:28;100333.13;;;2.54;81.93
77869;BME280;67231;59.144;37.934;2023-04-03T05:01:57;100335.56;;;2.58;81.67
77869;BME280;67231;59.144;37.934;2023-04-03T05:04:23;100345.22;;;2.57;81.63
77869;BME280;67231;59.144;37.934;2023-04-03T05:06:54;100345.22;;;2.57;81.82
77869;BME280;67231;59.144;37.934;2023-04-03T05:09:24;100342.31;;;2.62;81.67
77869;BME280;67231;59.144;37.934;2023-04-03T05:11:52;100355.31;;;2.63;81.57
77869;BME280;67231;59.144;37.934;2023-04-03T05:14:22;100351.75;;;2.64;81.32
77869;BME280;67231;59.144;37.934;2023-04-03T05:16:49;100348.84;;;2.69;81.46
77869;BME280;67231;59.144;37.934;2023-04-03T05:19:20;100355.41;;;2.76;81.16
77869;BME280;67231;59.144;37.934;2023-04-03T05:21:47;100355.03;;;2.82;81.43
77869;BME280;67231;59.144;37.934;2023-04-03T05:24:15;100357.19;;;2.90;81.07
77869;BME280;67231;59.144;37.934;2023-04-03T05:26:43;100372.06;;;2.89;80.91
77869;BME280;67231;59.144;37.934;2023-04-03T05:29:11;100367.75;;;2.88;81.31
77869;BME280;67231;59.144;37.934;2023-04-03T05:31:38;100370.38;;;2.88;81.11
77869;BME280;67231;59.144;37.934;2023-04-03T05:34:06;100369.44;;;2.89;80.92
77869;BME280;67231;59.144;37.934;2023-04-03T05:36:35;100365.59;;;2.95;81.23
77869;BME280;67231;59.144;37.934;2023-04-03T05:39:05;100369.63;;;3.01;80.84
77869;BME280;67231;59.144;37.934;2023-04-03T05:41:34;100369.34;;;3.05;80.61
77869;BME280;67231;59.144;37.934;2023-04-03T05:44:01;100372.78;;;3.06;80.67
77869;BME280;67231;59.144;37.934;2023-04-03T05:46:27;100370.72;;;3.11;80.89
77869;BME280;67231;59.144;37.934;2023-04-03T05:48:56;100388.88;;;3.14;80.66
77869;BME280;67231;59.144;37.934;2023-04-03T05:51:30;100390.22;;;3.21;80.50
77869;BME280;67231;59.144;37.934;2023-04-03T05:54:08;100384.69;;;3.26;80.48
77869;BME280;67231;59.144;37.934;2023-04-03T05:56:35;100381.09;;;3.27;80.43
77869;BME280;67231;59.144;37.934;2023-04-03T05:59:02;100390.38;;;3.33;80.10
77869;BME280;67231;59.144;37.934;2023-04-03T06:01:28;100391.31;;;3.32;79.92
77869;BME280;67231;59.144;37.934;2023-04-03T06:03:55;100393.00;;;3.33;79.99
77869;BME280;67231;59.144;37.934;2023-04-03T06:06:24;100393.34;;;3.41;80.02
77869;BME280;67231;59.144;37.934;2023-04-03T06:08:50;100400.38;;;3.40;80.05
77869;BME280;67231;59.144;37.934;2023-04-03T06:11:17;100401.59;;;3.35;79.65
77869;BME280;67231;59.144;37.934;2023-04-03T06:13:43;100407.97;;;3.31;79.86
77869;BME280;67231;59.144;37.934;2023-04-03T06:16:12;100409.22;;;3.25;79.89
77869;BME280;67231;59.144;37.934;2023-04-03T06:18:41;100396.84;;;3.27;79.77
77869;BME280;67231;59.144;37.934;2023-04-03T06:21:08;100409.47;;;3.35;79.91
77869;BME280;67231;59.144;37.934;2023-04-03T06:23:34;100392.44;;;3.42;79.85
77869;BME280;67231;59.144;37.934;2023-04-03T06:26:01;100399.44;;;3.41;79.61
77869;BME280;67231;59.144;37.934;2023-04-03T06:28:27;100403.94;;;3.39;79.85
77869;BME280;67231;59.144;37.934;2023-04-03T06:30:53;100402.78;;;3.43;80.02
77869;BME280;67231;59.144;37.934;2023-04-03T06:33:19;100389.38;;;3.48;79.79
77869;BME280;67231;59.144;37.934;2023-04-03T06:35:45;100394.16;;;3.56;79.61
77869;BME280;67231;59.144;37.934;2023-04-03T06:38:12;100400.22;;;3.56;79.23
77869;BME280;67231;59.144;37.934;2023-04-03T06:40:38;100399.50;;;3.54;79.83
77869;BME280;67231;59.144;37.934;2023-04-03T06:43:04;100404.66;;;3.56;79.72
77869;BME280;67231;59.144;37.934;2023-04-03T06:45:31;100396.38;;;3.62;79.50
77869;BME280;67231;59.144;37.934;2023-04-03T06:47:57;100405.88;;;3.64;79.79
77869;BME280;67231;59.144;37.934;2023-04-03T06:50:24;100403.25;;;3.64;79.70
77869;BME280;67231;59.144;37.934;2023-04-03T06:52:50;100409.84;;;3.70;79.76
77869;BME280;67231;59.144;37.934;2023-04-03T06:55:17;100413.88;;;3.76;79.24
77869;BME280;67231;59.144;37.934;2023-04-03T06:57:43;100417.44;;;3.75;79.59
77869;BME280;67231;59.144;37.934;2023-04-03T07:00:11;100424.13;;;3.66;79.47
77869;BME280;67231;59.144;37.934;2023-04-03T07:02:37;100418.41;;;3.59;80.04
77869;BME280;67231;59.144;37.934;2023-04-03T07:05:04;100423.47;;;3.62;80.08
77869;BME280;67231;59.144;37.934;2023-04-03T07:07:31;100433.66;;;3.67;79.94
77869;BME280;67231;59.144;37.934;2023-04-03T07:10:00;100438.63;;;3.72;79.28
77869;BME280;67231;59.144;37.934;2023-04-03T07:12:26;100435.06;;;3.73;79.56
77869;BME280;67231;59.144;37.934;2023-04-03T07:14:52;100440.13;;;3.76;79.71
77869;BME280;67231;59.144;37.934;2023-04-03T07:17:19;100446.75;;;3.81;79.02
77869;BME280;67231;59.144;37.934;2023-04-03T07:19:46;100445.72;;;3.84;79.38
77869;BME280;67231;59.144;37.934;2023-04-03T07:22:12;100444.66;;;3.87;79.56
77869;BME280;67231;59.144;37.934;2023-04-03T07:24:39;100446.28;;;3.89;79.30
77869;BME280;67231;59.144;37.934;2023-04-03T07:27:05;100456.47;;;3.94;79.32
77869;BME280;67231;59.144;37.934;2023-04-03T07:29:31;100447.69;;;3.95;79.02
77869;BME280;67231;59.144;37.934;2023-04-03T07:31:58;100444.19;;;3.94;79.13
77869;BME280;67231;59.144;37.934;2023-04-03T07:34:24;100440.22;;;4.01;79.41
77869;BME280;67231;59.144;37.934;2023-04-03T07:36:51;100453.50;;;4.13;78.89
77869;BME280;67231;59.144;37.934;2023-04-03T07:39:17;100446.41;;;4.28;78.49
77869;BME280;67231;59.144;37.934;2023-04-03T07:41:44;100454.22;;;4.42;78.70
77869;BME280;67231;59.144;37.934;2023-04-03T07:44:10;100458.44;;;4.45;77.95
77869;BME280;67231;59.144;37.934;2023-04-03T07:46:37;100463.88;;;4.42;78.20
77869;BME280;67231;59.144;37.934;2023-04-03T07:49:04;100471.09;;;4.38;78.48
77869;BME280;67231;59.144;37.934;2023-04-03T07:51:30;100468.56;;;4.36;78.43
77869;BME280;67231;59.144;37.934;2023-04-03T07:53:57;100467.66;;;4.37;78.14
77869;BME280;67231;59.144;37.934;2023-04-03T07:56:24;100470.19;;;4.52;78.66
77869;BME280;67231;59.144;37.934;2023-04-03T07:58:51;100473.34;;;4.57;77.85
77869;BME280;67231;59.144;37.934;2023-04-03T08:01:17;100473.34;;;4.57;78.17
77869;BME280;67231;59.144;37.934;2023-04-03T08:03:43;100474.72;;;4.50;78.03
77869;BME280;67231;59.144;37.934;2023-04-03T08:06:10;100472.09;;;4.50;78.09
77869;BME280;67231;59.144;37.934;2023-04-03T08:08:36;100474.53;;;4.53;78.44
77869;BME280;67231;59.144;37.934;2023-04-03T08:11:03;100475.47;;;4.52;78.10
77869;BME280;67231;59.144;37.934;2023-04-03T08:13:31;100470.53;;;4.60;78.36
77869;BME280;67231;59.144;37.934;2023-04-03T08:16:06;100473.19;;;4.73;78.05
77869;BME280;67231;59.144;37.934;2023-04-03T08:18:32;100471.63;;;4.70;78.29
77869;BME280;67231;59.144;37.934;2023-04-03T08:20:58;100472.84;;;4.65;78.26
77869;BME280;67231;59.144;37.934;2023-04-03T08:23:25;100485.25;;;4.63;78.40
77869;BME280;67231;59.144;37.934;2023-04-03T08:25:52;100478.94;;;4.65;77.91
77869;BME280;67231;59.144;37.934;2023-04-03T08:28:19;100490.41;;;4.64;78.52
77869;BME280;67231;59.144;37.934;2023-04-03T08:30:45;100493.34;;;4.60;78.21
77869;BME280;67231;59.144;37.934;2023-04-03T08:33:12;100485.56;;;4.58;78.45
77869;BME280;67231;59.144;37.934;2023-04-03T08:35:39;100494.47;;;4.55;78.85
77869;BME280;67231;59.144;37.934;2023-04-03T08:38:07;100490.81;;;4.58;78.85
77869;BME280;67231;59.144;37.934;2023-04-03T08:40:33;100497.13;;;4.68;78.17
77869;BME280;67231;59.144;37.934;2023-04-03T08:45:57;100505.59;;;4.86;77.54
77869;BME280;67231;59.144;37.934;2023-04-03T08:48:35;100514.00;;;4.91;77.43
77869;BME280;67231;59.144;37.934;2023-04-03T08:51:06;100513.16;;;4.91;77.48
77869;BME280;67231;59.144;37.934;2023-04-03T08:53:40;100513.81;;;4.95;77.17
77869;BME280;67231;59.144;37.934;2023-04-03T08:56:09;100510.63;;;5.02;77.69
77869;BME280;67231;59.144;37.934;2023-04-03T08:58:45;100519.28;;;5.04;77.29
77869;BME280;67231;59.144;37.934;2023-04-03T09:01:20;100540.44;;;5.03;77.80
77869;BME280;67231;59.144;37.934;2023-04-03T09:03:48;100533.56;;;5.00;77.39
77869;BME280;67231;59.144;37.934;2023-04-03T09:06:26;100537.19;;;4.99;77.29
77869;BME280;67231;59.144;37.934;2023-04-03T09:23:27;100551.47;;;5.08;77.40
77869;BME280;67231;59.144;37.934;2023-04-03T09:25:57;100556.63;;;5.09;77.71
77869;BME280;67231;59.144;37.934;2023-04-03T09:28:27;100560.09;;;5.10;77.27
77869;BME280;67231;59.144;37.934;2023-04-03T09:30:56;100548.84;;;5.08;77.01
77869;BME280;67231;59.144;37.934;2023-04-03T09:33:22;100555.16;;;5.05;77.02
77869;BME280;67231;59.144;37.934;2023-04-03T09:35:50;100559.06;;;5.13;77.51
77869;BME280;67231;59.144;37.934;2023-04-03T09:38:20;100557.38;;;5.11;76.98
77869;BME280;67231;59.144;37.934;2023-04-03T09:41:04;100563.72;;;5.22;76.90
77869;BME280;67231;59.144;37.934;2023-04-03T09:43:32;100571.16;;;5.28;77.17
77869;BME280;67231;59.144;37.934;2023-04-03T09:46:36;100570.84;;;5.33;77.74
77869;BME280;67231;59.144;37.934;2023-04-03T09:49:05;100567.59;;;5.29;77.60
77869;BME280;67231;59.144;37.934;2023-04-03T09:51:32;100568.75;;;5.25;77.10
77869;BME280;67231;59.144;37.934;2023-04-03T09:53:59;100563.06;;;5.31;78.08
77869;BME280;67231;59.144;37.934;2023-04-03T09:56:27;100551.69;;;5.43;77.19
77869;BME280;67231;59.144;37.934;2023-04-03T10:01:35;100556.75;;;5.59;77.38
77869;BME280;67231;59.144;37.934;2023-04-03T10:06:43;100557.78;;;5.44;76.94
77869;BME280;67231;59.144;37.934;2023-04-03T10:09:38;100568.75;;;5.25;77.23
77869;BME280;67231;59.144;37.934;2023-04-03T10:12:10;100573.56;;;5.18;77.85
77869;BME280;67231;59.144;37.934;2023-04-03T10:23:00;100573.78;;;5.28;77.63
77869;BME280;67231;59.144;37.934;2023-04-03T10:28:12;100573.38;;;5.34;78.14
77869;BME280;67231;59.144;37.934;2023-04-03T10:41:50;100574.84;;;5.64;78.29
77869;BME280;67231;59.144;37.934;2023-04-03T10:53:01;100566.22;;;5.75;77.25
77869;BME280;67231;59.144;37.934;2023-04-03T10:55:41;100568.50;;;5.79;77.71
77869;BME280;67231;59.144;37.934;2023-04-03T10:58:20;100572.72;;;5.82;77.85
77869;BME280;67231;59.144;37.934;2023-04-03T11:00:51;100577.25;;;5.80;77.63
77869;BME280;67231;59.144;37.934;2023-04-03T11:03:42;100578.41;;;5.76;77.60
77869;BME280;67231;59.144;37.934;2023-04-03T11:06:12;100583.88;;;5.73;77.33
77869;BME280;67231;59.144;37.934;2023-04-03T11:11:26;100588.00;;;5.77;77.37
77869;BME280;67231;59.144;37.934;2023-04-03T11:19:59;100596.66;;;5.53;77.71
77869;BME280;67231;59.144;37.934;2023-04-03T11:22:33;100588.66;;;5.55;78.38
77869;BME280;67231;59.144;37.934;2023-04-03T11:25:06;100598.44;;;5.53;78.32
77869;BME280;67231;59.144;37.934;2023-04-03T11:27:44;100602.00;;;5.52;77.98
77869;BME280;67231;59.144;37.934;2023-04-03T11:35:55;100593.81;;;5.43;78.73
77869;BME280;67231;59.144;37.934;2023-04-03T11:38:29;100595.41;;;5.46;78.22
77869;BME280;67231;59.144;37.934;2023-04-03T11:40:57;100596.97;;;5.48;78.60
77869;BME280;67231;59.144;37.934;2023-04-03T11:43:29;100598.44;;;5.53;78.05
77869;BME280;67231;59.144;37.934;2023-04-03T11:50:56;100594.97;;;5.65;77.92
77869;BME280;67231;59.144;37.934;2023-04-03T11:55:58;100597.81;;;5.75;77.73
77869;BME280;67231;59.144;37.934;2023-04-03T11:58:28;100591.69;;;5.74;77.32
77869;BME280;67231;59.144;37.934;2023-04-03T12:01:07;100600.75;;;5.70;77.97
77869;BME280;67231;59.144;37.934;2023-04-03T12:19:01;100610.63;;;5.54;78.19
77869;BME280;67231;59.144;37.934;2023-04-03T12:28:58;100623.06;;;5.52;78.56
77869;BME280;67231;59.144;37.934;2023-04-03T12:31:39;100627.41;;;5.53;78.38
77869;BME280;67231;59.144;37.934;2023-04-03T12:34:22;100628.34;;;5.52;78.63
77869;BME280;67231;59.144;37.934;2023-04-03T12:39:36;100624.56;;;5.43;78.77
77869;BME280;67231;59.144;37.934;2023-04-03T12:47:35;100619.81;;;5.35;78.63
77869;BME280;67231;59.144;37.934;2023-04-03T12:50:16;100624.13;;;5.36;78.24
77869;BME280;67231;59.144;37.934;2023-04-03T12:55:22;100620.53;;;5.37;79.24
77869;BME280;67231;59.144;37.934;2023-04-03T12:57:48;100622.22;;;5.38;78.57
77869;BME280;67231;59.144;37.934;2023-04-03T13:02:49;100625.16;;;5.34;79.28
77869;BME280;67231;59.144;37.934;2023-04-03T13:05:19;100622.44;;;5.35;79.09
77869;BME280;67231;59.144;37.934;2023-04-03T13:07:53;100625.06;;;5.35;79.18
77869;BME280;67231;59.144;37.934;2023-04-03T13:10:22;100616.13;;;5.38;79.03
77869;BME280;67231;59.144;37.934;2023-04-03T13:17:49;100626.22;;;5.31;78.95
77869;BME280;67231;59.144;37.934;2023-04-03T13:20:21;100620.94;;;5.31;79.23
77869;BME280;67231;59.144;37.934;2023-04-03T13:23:00;100618.41;;;5.29;79.25
77869;BME280;67231;59.144;37.934;2023-04-03T13:25:31;100624.66;;;5.28;79.24
77869;BME280;67231;59.144;37.934;2023-04-03T13:28:00;100629.03;;;5.28;79.44
77869;BME280;67231;59.144;37.934;2023-04-03T13:30:38;100637.16;;;5.25;79.35
77869;BME280;67231;59.144;37.934;2023-04-03T13:33:22;100637.28;;;5.23;79.33
77869;BME280;67231;59.144;37.934;2023-04-03T13:36:16;100634.75;;;5.22;79.13
77869;BME280;67231;59.144;37.934;2023-04-03T13:38:40;100641.78;;;5.21;79.81
77869;BME280;67231;59.144;37.934;2023-04-03T13:41:30;100629.78;;;5.17;79.84
77869;BME280;67231;59.144;37.934;2023-04-03T13:43:56;100637.00;;;5.14;79.70
77869;BME280;67231;59.144;37.934;2023-04-03T13:46:26;100630.09;;;5.13;79.65
77869;BME280;67231;59.144;37.934;2023-04-03T13:48:56;100637.16;;;5.12;79.90
77869;BME280;67231;59.144;37.934;2023-04-03T13:51:27;100632.91;;;5.09;80.51
77869;BME280;67231;59.144;37.934;2023-04-03T13:54:01;100634.81;;;5.07;79.72
77869;BME280;67231;59.144;37.934;2023-04-03T13:56:38;100634.06;;;5.05;79.52
77869;BME280;67231;59.144;37.934;2023-04-03T14:04:24;100636.78;;;5.04;80.29
77869;BME280;67231;59.144;37.934;2023-04-03T14:06:54;100639.50;;;5.02;80.57
77869;BME280;67231;59.144;37.934;2023-04-03T14:09:22;100643.09;;;5.01;80.63
77869;BME280;67231;59.144;37.934;2023-04-03T14:11:52;100631.94;;;4.98;80.55
77869;BME280;67231;59.144;37.934;2023-04-03T14:14:22;100638.97;;;4.97;80.24
77869;BME280;67231;59.144;37.934;2023-04-03T14:16:55;100638.97;;;4.97;80.35
77869;BME280;67231;59.144;37.934;2023-04-03T14:19:25;100648.88;;;4.93;80.33
77869;BME280;67231;59.144;37.934;2023-04-03T14:21:54;100639.38;;;4.91;80.82
77869;BME280;67231;59.144;37.934;2023-04-03T14:24:21;100638.44;;;4.92;80.76
77869;BME280;67231;59.144;37.934;2023-04-03T14:26:53;100641.06;;;4.92;81.08
77869;BME280;67231;59.144;37.934;2023-04-03T14:29:20;100646.53;;;4.89;80.74
77869;BME280;67231;59.144;37.934;2023-04-03T14:31:48;100655.34;;;4.88;80.20
77869;BME280;67231;59.144;37.934;2023-04-03T14:34:16;100650.31;;;4.85;80.90
77869;BME280;67231;59.144;37.934;2023-04-03T14:36:44;100645.25;;;4.82;80.67
77869;BME280;67231;59.144;37.934;2023-04-03T14:39:17;100652.19;;;4.83;81.14
77869;BME280;67231;59.144;37.934;2023-04-03T14:41:44;100650.50;;;4.82;80.55
77869;BME280;67231;59.144;37.934;2023-04-03T14:44:11;100650.72;;;4.79;81.27
77869;BME280;67231;59.144;37.934;2023-04-03T14:46:40;100649.22;;;4.74;80.87
77869;BME280;67231;59.144;37.934;2023-04-03T14:49:19;100655.53;;;4.72;81.10
77869;BME280;67231;59.144;37.934;2023-04-03T14:51:47;100651.19;;;4.71;81.30
77869;BME280;67231;59.144;37.934;2023-04-03T14:54:19;100647.75;;;4.70;81.03
77869;BME280;67231;59.144;37.934;2023-04-03T14:56:52;100654.84;;;4.68;81.65
77869;BME280;67231;59.144;37.934;2023-04-03T14:59:18;100658.63;;;4.64;81.14
77869;BME280;67231;59.144;37.934;2023-04-03T15:01:46;100654.50;;;4.60;81.97
77869;BME280;67231;59.144;37.934;2023-04-03T15:04:16;100655.47;;;4.59;81.24
77869;BME280;67231;59.144;37.934;2023-04-03T15:06:44;100653.78;;;4.58;81.40
77869;BME280;67231;59.144;37.934;2023-04-03T15:09:25;100650.22;;;4.59;82.21
77869;BME280;67231;59.144;37.934;2023-04-03T15:11:53;100654.69;;;4.57;81.70
77869;BME280;67231;59.144;37.934;2023-04-03T15:14:20;100650.41;;;4.56;81.61
77869;BME280;67231;59.144;37.934;2023-04-03T15:16:48;100653.97;;;4.55;81.65